Oregon Coast Gravel Epic

Saturday, May 5, 2018 9:30 AM (GMT-7) - Final results

Race info
Sport: Cycling - gravel
Location: Waldport, OR, United States
Start type: Mass start
Racers: 124
Timed on: iPad
Timed with: Webscorer PRO 2.9
Updated: Monday, May 7, 2018 2:39 PM (GMT-7)
Organized by: Mudslinger Events
Race website: http://www.oregoncoastgravelepic.com

Contact organizer

Use this form to send an email to the organizer.

Your name
Your email address
Confirm email address
Message to organizer
Send

Place Bib Racer name Affiliation Category Age Gender Finish time
12English, RobEugene, OR - English Cycles Male 40-4441M 3:22:20.6--100%31.62%32.05%
24Kesselman, BrianPortland, OR Male 40-4441M 3:22:35.8+0:15.2+0.13%99.87%31.53%31.97%
313Easter, MikeHappy Valley, OR Male 40-4443M 3:23:32.3+1:11.7+0.59%99.41%31.22%31.65%
427Peterson, CodyBend, OR Male 35-3938M 3:28:12.8+5:52.2+2.90%97.18%29.64%30.08%
59Marshall, BrandonEugene, OR - LANDSPEED Male 35-3937M 3:28:46.6+6:26.0+3.18%96.92%29.45%29.89%
66Greene, MarshallBend, OR Male 35-3936M 3:29:09.2+6:48.6+3.37%96.74%29.32%29.77%
711Myers, JonathanPortland, OR - Team S&M Male 50-5450M 3:30:08.3+7:47.7+3.85%96.29%28.99%29.43%
8252Barton CarterSalem, OR - Ridge Cycle Sport Male 40-4442M 3:32:51.7+10:31.1+5.20%95.06%28.07%28.52%
97Handorff, DanPortland, OR Male 50-5450M 3:36:29.9+14:09.3+7.00%93.46%26.84%27.30%
10247Junjohann, IanEugene, OR - LANDSPEED Male 35-3936M 3:40:30.7+18:10.1+8.98%91.76%25.48%25.95%
1136Handrich, BenSalem, OR Male 25-3431M 3:44:07.8+21:47.2+10.77%90.28%24.26%24.74%
1221Carroll, ScottCorvallis, OR - Revenge Cycling & Racing Male 50-5452M 3:47:05.6+24:45.0+12.23%89.10%23.26%23.74%
1320Stevenson, PeterSaanichton, BC Male 50-5451M 3:47:55.8+25:35.2+12.65%88.77%22.97%23.46%
14155Wilson, SeanBend, OR - Hutchs Bicycle Bend Male 25-3426M 3:50:04.6+27:44.0+13.71%87.95%22.25%22.74%
158Johnson, KendalCorvallis, OR - Sagebrush Cycles Male 25-3425M 3:50:20.9+28:00.3+13.84%87.84%22.16%22.65%
1634Beck, BarryBrentwood Bay, BC Male 55-5958M 3:53:35.4+31:14.8+15.44%86.62%21.06%21.56%
1722Thielen, SeanPortland, OR - Hosmer Chiropractic -RPM Mortgage ) Male 45-4945M 3:53:37.1+31:16.5+15.46%86.61%21.05%21.55%
1842Hasley, KevinBellevue, WA - RootMetrics Male 40-4444M 3:53:40.6+31:20.0+15.49%86.59%21.03%21.53%
1989Callahan, RobEugene, OR Male 40-4442M 3:57:22.8+35:02.2+17.32%85.24%19.78%20.29%
2045Johnson, AshlynPortland, OR Female 35-3937F 3:59:04.8+36:44.2+18.16%84.63%19.21%19.72%
2139Hood, ScottNorth Bend, OR - Bicycleway.com-Oregon Paddle Sports Male 45-4944M 3:59:12.0+36:51.4+18.21%84.59%19.16%19.68%
2273Magilner, MarkSalem, OR - Half Fast Velo Male 50-5453M 3:59:26.1+37:05.5+18.33%84.51%19.09%19.60%
23132Graves, GabeEugene, OR - Bicycle Way Of Life Male 15-2422M 4:10:10.7+47:50.1+23.64%80.88%15.45%15.99%
2444Johnson, PatrickPortland, OR Male 35-3938M 4:11:11.6+48:51.0+24.14%80.55%15.11%15.65%
2532Reid, GrantSaanichton, BC Male 50-5453M 4:11:44.8+49:24.2+24.42%80.38%14.92%15.46%
2659Mallet, MattCorvallis, OR - Revenge Cycling & Racing Male 40-4442M 4:13:32.0+51:11.4+25.30%79.81%14.32%14.86%
2724goff, wadePhilomath, OR - Half Fast Velo Male 45-4946M 4:15:02.6+52:42.0+26.04%79.34%13.81%14.36%
2874LaBarre, RyanPortland, OR - Team Velo Cult Male 35-3936M 4:16:25.5+54:04.9+26.73%78.91%13.34%13.89%
29113Winner, DennisSalem, OR - Winner Dennis D Male 60-6464M 4:16:37.2+54:16.6+26.82%78.85%13.28%13.83%
30153Larsen, DavidNewport, OR - Rolf Prima Newport Male 45-4947M 4:20:12.2+57:51.6+28.59%77.76%12.07%12.62%
3128mock, aaroncentral point, OR - Cycle Analysis Male 45-4947M 4:20:14.9+57:54.3+28.62%77.75%12.05%12.61%
32253Gregory PhippsCoravllis, OR Male 50-5453M 4:23:58.4+1:01:37.8+30.46%76.65%10.79%11.36%
3350Spitzer, MikePortland, OR Male 45-4948M 4:26:20.6+1:04:00.0+31.63%75.97%9.99%10.56%
34154Howe, NickLongview, WA - Bro Time Adventures Male 25-3433M 4:27:45.8+1:05:25.2+32.33%75.57%9.51%10.08%
3565McCall, WarrenNorth Saanich, BC Male 50-5452M 4:32:24.3+1:10:03.7+34.63%74.28%7.94%8.53%
3655Kelly-Foulston, EileenPortland, OR - Therapeutic assoicates Racing p/b PO Female 50-5453F 4:32:26.8+1:10:06.2+34.65%74.27%7.93%8.51%
3753Hall, JoeFairview, OR - Renovo Male 45-4948M 4:33:10.0+1:10:49.4+35.00%74.07%7.69%8.27%
3868Leedom, DavidSpringfield, OR Male 60-6461M 4:34:39.1+1:12:18.5+35.74%73.67%7.18%7.77%
3957Antonson, CaseyPortland, OR - Team Velo Cult Male 40-4443M 4:36:35.3+1:14:14.7+36.69%73.16%6.53%7.12%
4081Rabenold, PeterCorvallis, OR Male 55-5956M 4:39:36.9+1:17:16.3+38.19%72.36%5.51%6.10%
4194Martell, TimothySandy, OR Male 45-4949M 4:39:46.3+1:17:25.7+38.27%72.32%5.45%6.05%
42254Jeff BrockPortand, OR - Nossa Familia Coffe Male 40-4442M 4:40:28.7+1:18:08.1+38.62%72.14%5.21%5.81%
43142Monroe, JohnSan Francisco, CA - Team Roaring Mouse Male 50-5452M 4:45:18.1+1:22:57.5+41.00%70.92%3.58%4.19%
44202Kolb, SusanBend, OR - Sunnyside Sports Female 45-4949F 4:47:31.5+1:25:10.9+42.10%70.37%2.83%3.45%
45148Johnson, Jules DylanSalem, OR Male 25-3427M 4:50:14.4+1:27:53.8+43.44%69.72%1.92%2.54%
4664Walko, DavidEugene, OR Male 45-4946M 4:51:20.2+1:28:59.6+43.98%69.45%1.55%2.17%
4767Kay, TomPortland, OR - The Spokesmen Male 40-4443M 4:51:39.3+1:29:18.7+44.14%69.38%1.44%2.06%
48249Beth SteerBend, OR Female 35-3938F 4:51:50.1+1:29:29.5+44.23%69.33%1.38%2.00%
4970Kincaid, MattEugene, OR Male 45-4949M 4:51:54.6+1:29:34.0+44.26%69.32%1.35%1.98%
50135Stegenga, KarlEugene, OR Male 35-3937M 4:51:56.9+1:29:36.3+44.28%69.31%1.34%1.96%
5129ohlhaber, stevenPortland, OR - Team Steve Male 45-4946M 4:52:24.5+1:30:03.9+44.51%69.20%1.18%1.81%
52248Chris ButlerEugene, OR - Butler Family Dental Male 45-4947M 4:52:52.5+1:30:31.9+44.74%69.09%1.03%1.65%
5386Ott, AlanEugene, OR - Rock Lobster Male 60-6460M 4:54:01.6+1:31:41.0+45.31%68.82%0.64%1.26%
5437Bauck, LeeEstacada, OR Male 45-4947M 4:54:29.9+1:32:09.3+45.54%68.71%0.48%1.11%
55209Thier, ChrisBend, OR - Boneyard Cycling Male 40-4444M 4:55:25.8+1:33:05.2+46.00%68.49%0.16%0.79%
5678Barrett, CharlesPortland, OR - Cyclepath Male 50-5450M 4:55:37.3+1:33:16.7+46.10%68.45%0.10%0.73%
5766Cowing, BradyPortland, OR - Ironheads Male 40-4443M 4:57:05.8+1:34:45.2+46.83%68.11%-0.40%0.23%
5825Brandwein, MichaelPortland, OR - Team Velo Cult Male 25-3429M 4:57:11.7+1:34:51.1+46.88%68.08%-0.43%0.20%
59116anolik, davidPortland, OR Male 55-5955M 4:57:47.6+1:35:27.0+47.17%67.95%-0.64%0.00%
6079Pollard, PeterPortland, OR Male 65-6966M 4:58:25.2+1:36:04.6+47.48%67.80%-0.85%-0.21%
6177Blomberg, MiellePortland, OR Female 45-4946F 4:58:41.9+1:36:21.3+47.62%67.74%-0.94%-0.30%
6223Swygert, NormanPortland, OR - Planet-X Team USA Male 45-4948M 4:58:54.4+1:36:33.8+47.72%67.69%-1.01%-0.37%
6363Johnson, LeeSalem, OR Male 35-3937M 5:01:08.0+1:38:47.4+48.82%67.19%-1.77%-1.12%
64126Moyles, JamesRedwood City, CA Male 65-6966M 5:01:34.9+1:39:14.3+49.04%67.09%-1.92%-1.27%
6598Fredricks, KarlEugene, OR Male 55-5958M 5:04:29.3+1:42:08.7+50.48%66.45%-2.90%-2.25%
6675Kennedy, HelenEugene, OR - Therapeutic assoicates Racing p/b PO Female 40-4440F 5:04:35.8+1:42:15.2+50.53%66.43%-2.94%-2.28%
6714Hongo, AlexanderEugene, OR Male 25-3433M 5:09:04.2+1:46:43.6+52.75%65.47%-4.45%-3.79%
6816Villavicencio, JorgePortland, OR Male 50-5450M 5:09:06.4+1:46:45.8+52.76%65.46%-4.46%-3.80%
6976wagner, jamesAuburn, WA - Bike Masters Male 75+75M 5:09:58.0+1:47:37.4+53.19%65.28%-4.75%-4.09%
7096kunc, chrisSisters, OR - Oregon Trail Syndicate Male 65-6964M 5:09:59.1+1:47:38.5+53.20%65.28%-4.76%-4.09%
7180Royston, MattPhilomath, OR Male 50-5454M 5:10:01.8+1:47:41.2+53.22%65.27%-4.77%-4.11%
7291Maus, JonathanPortland, OR Male 40-4443M 5:14:58.5+1:52:37.9+55.66%64.24%-6.44%-5.77%
7360Maus, JoelFullerton, CA - Fullerton Bikes Male 45-4945M 5:15:13.2+1:52:52.6+55.78%64.19%-6.53%-5.85%
74125DeShirley, JonBeaverton, OR - Oregon Trail Syndicate Male 35-3938M 5:16:12.9+1:53:52.3+56.28%63.99%-6.86%-6.19%
75107johansen, nickPortland, OR Male 35-3938M 5:17:42.6+1:55:22.0+57.02%63.69%-7.37%-6.69%
7697Jasper, Russell99301, WA Male 50-5453M 5:17:46.8+1:55:26.2+57.05%63.67%-7.39%-6.71%
77100Cole, DarinCorvallis, OR Male 50-5451M 5:18:33.5+1:56:12.9+57.43%63.52%-7.65%-6.97%
78101bernstein, paulTacoma, WA - Bike Masters Male 70-7473M 5:24:16.7+2:01:56.1+60.26%62.40%-9.59%-8.89%
79117Bustard, Aaronmedford, OR Male 35-3936M 5:24:56.0+2:02:35.4+60.59%62.27%-9.81%-9.11%
8084Green, KristiYreka, CA Female 45-4947F 5:25:27.0+2:03:06.4+60.84%62.17%-9.98%-9.29%
8143Bennett, GregoryCorvallis, OR Male 65-6965M 5:26:14.6+2:03:54.0+61.23%62.02%-10.25%-9.55%
82157Boelter, JoshuaPortland, OR Male 40-4442M 5:26:21.8+2:04:01.2+61.29%62.00%-10.29%-9.59%
8310BIETZ, JASONSHERWOOD, OR - River City Bicycles Male 50-5451M 5:27:55.9+2:05:35.3+62.07%61.70%-10.82%-10.12%
84138OBrien, JosephBrush Prairie, WA Male 45-4948M 5:28:07.4+2:05:46.8+62.16%61.67%-10.89%-10.18%
8592Wilger, JohnForest Grove, OR - Team Oregon p/b Rodda Paint Male 35-3938M 5:28:43.7+2:06:23.1+62.46%61.55%-11.09%-10.39%
8649Miller, JordanBend, OR - Deschutes Brewery Male 35-3936M 5:28:46.4+2:06:25.8+62.48%61.54%-11.11%-10.40%
87251Campbell, GloriNYC, NY - TEAM AF Female 35-3937F 5:31:07.7+2:08:47.1+63.65%61.11%-11.90%-11.19%
8888Wilson, ForestPortland, OR - Team Coastal Male 35-3935M 5:31:12.1+2:08:51.5+63.68%61.09%-11.93%-11.22%
89104polovnikoff, brycevancouver, WA Male 35-3939M 5:32:02.0+2:09:41.4+64.09%60.94%-12.21%-11.50%
905Nelson, ChrisPortland, OR Male 25-3433M 5:32:11.8+2:09:51.2+64.17%60.91%-12.26%-11.55%
9154Lathrop, JaredWest Linn, OR - Grouptrail Male 40-4443M 5:32:29.7+2:10:09.1+64.32%60.86%-12.36%-11.65%
92162Minson, ChristopherEugene, OR Male 50-5452M 5:34:24.3+2:12:03.7+65.27%60.51%-13.01%-12.29%
93158Devers, AlexPortland, OR Male 25-3426M 5:34:26.9+2:12:06.3+65.29%60.50%-13.02%-12.31%
9440Miller, LeeEugene, OR Male 25-3427M 5:34:29.2+2:12:08.6+65.31%60.49%-13.04%-12.32%
95129Slabaugh, MichaelCorvallis, OR Male 40-4441M 5:35:06.8+2:12:46.2+65.62%60.38%-13.25%-12.53%
96103Gross, ThomasBeaverton, OR Male 40-4440M 5:38:13.9+2:15:53.3+67.16%59.82%-14.30%-13.58%
9730Varney, JodeePortland, OR - Sorella Forte Female 45-4947F 5:39:08.8+2:16:48.2+67.61%59.66%-14.61%-13.89%
9826Chase, RyanBend, OR - Sagebrush Cycles Male 40-4439M 5:43:29.9+2:21:09.3+69.76%58.91%-16.08%-15.35%
99105Tunis, JustinPortland, OR - Team Velo Cult Male 35-3937M 5:43:52.0+2:21:31.4+69.94%58.84%-16.21%-15.47%
10082Broxson, LewCorvallis, OR Male 70-7472M 5:47:29.7+2:25:09.1+71.74%58.23%-17.43%-16.69%
101110Akers, WesFort Wayne, IN Male 40-4440M 5:47:56.8+2:25:36.2+71.96%58.15%-17.59%-16.84%
102111Sawyer, RickEugene, OR Male 50-5453M 5:50:10.6+2:27:50.0+73.06%57.78%-18.34%-17.59%
10346shepard, DwanEugene, OR - Co-Motion Factory Team Male 55-5956M 5:51:49.9+2:29:29.3+73.88%57.51%-18.90%-18.15%
104127Mahaffy, CharlesCoos Bay, OR Male 75+78M 5:54:59.2+2:32:38.6+75.44%57.00%-19.96%-19.21%
105160Diterlizzi, JosephCreswell, OR Male 25-3428M 5:58:49.8+2:36:29.2+77.34%56.39%-21.26%-20.50%
106114White, MarkEugene, OR Male 55-5956M 6:01:44.0+2:39:23.4+78.77%55.94%-22.24%-21.47%
107143Renn, SuzyPortland, OR - Team slow Female 45-4948F 6:01:56.5+2:39:35.9+78.88%55.90%-22.32%-21.54%
108102Hilgert, AmberCorvallis, OR - Team Dirt Female 35-3937F 6:04:22.4+2:42:01.8+80.08%55.53%-23.14%-22.36%
109122Mock, Ruthcentral point, OR Female 40-4442F 6:05:47.7+2:43:27.1+80.78%55.32%-23.62%-22.84%
110128Romney, Staceymedford, OR Female 50-5452F 6:08:54.4+2:46:33.8+82.32%54.85%-24.67%-23.88%
11169Stringer, Kennethmedford, OR Male 45-4949M 6:09:01.8+2:46:41.2+82.38%54.83%-24.71%-23.92%
112119Singleton, JasonYreka, CA Male 45-4948M 6:09:13.0+2:46:52.4+82.47%54.80%-24.77%-23.98%
113144Hammond, Jacobmedford, OR - Cycle Analysis Male 25-3434M 6:18:15.3+2:55:54.7+86.94%53.49%-27.83%-27.02%
11418bittick, danmedford, OR - Cycle Analysis Male 65-6965M 6:18:17.6+2:55:57.0+86.96%53.49%-27.84%-27.03%
115136Ramsey, BillyCreswell, OR - Bicycleway.com/OPS Male 60-6464M 6:21:05.2+2:58:44.6+88.34%53.10%-28.78%-27.97%
116108Ferguson, CurtRocklin, CA Male 50-5453M 6:30:20.3+3:07:59.7+92.91%51.84%-31.91%-31.08%
11783Brown, LeahPortland, OR - Team 10 Barrel Female 25-3430F 6:30:22.1+3:08:01.5+92.92%51.83%-31.92%-31.09%
-48Sullivan, StephenTacoma, WA - Stephen Sullivan Male 40-4444M DNF-----
-71Stoner, Destrymedford, OR - Cycle Analysis Male 40-4443M DNF-----
-93Stark, StevenPortland, OR Male 60-6460M DNF-----
-109Smith, AlexanderMilwaukie, OR Male 35-3936M DNF-----
-118Hogan, DennisPortland, OR Male 70-7471M DNF-----
-134Godsil, StephenPortland, OR Male 45-4947M DNF-----
-159Phipps, GregoryCorvallis, OR Male 50-5452M DNF-----